createdAt,value
2018-11-14T00:00:24.266Z,9.50
2018-11-14T00:01:24.246Z,10.20
2018-11-14T00:02:24.229Z,9.80
2018-11-14T00:03:24.205Z,10.50
2018-11-14T00:04:24.181Z,9.90
2018-11-14T00:05:24.159Z,9.40
2018-11-14T00:06:24.136Z,12.10
2018-11-14T00:07:24.118Z,10.80
2018-11-14T00:08:24.103Z,11.40
2018-11-14T00:09:24.110Z,11.10
2018-11-14T00:10:24.060Z,11.50
2018-11-14T00:11:24.035Z,10.80
2018-11-14T00:12:24.014Z,11.10
2018-11-14T00:13:23.998Z,9.80
2018-11-14T00:14:23.972Z,9.60
2018-11-14T00:15:23.954Z,11.30
2018-11-14T00:16:23.937Z,10.00
2018-11-14T00:17:23.910Z,10.20
2018-11-14T00:18:23.888Z,10.50
2018-11-14T00:19:23.907Z,9.60
2018-11-14T00:20:23.853Z,8.60
2018-11-14T00:21:23.824Z,9.60
2018-11-14T00:22:23.808Z,9.20
2018-11-14T00:23:23.792Z,9.20
2018-11-14T00:24:23.833Z,9.10
2018-11-14T00:25:23.751Z,9.10
2018-11-14T00:26:23.722Z,9.10
2018-11-14T00:27:23.708Z,9.20
2018-11-14T00:28:23.680Z,9.90
2018-11-14T00:29:23.707Z,10.30
2018-11-14T00:30:23.642Z,9.00
2018-11-14T00:31:23.616Z,9.70
2018-11-14T00:32:23.599Z,9.20
2018-11-14T00:33:23.576Z,8.40
2018-11-14T00:34:23.611Z,9.40
2018-11-14T00:35:23.532Z,10.30
2018-11-14T00:36:23.516Z,9.20
2018-11-14T00:37:23.492Z,8.80
2018-11-14T00:38:23.476Z,9.00
2018-11-14T00:39:23.456Z,7.90
2018-11-14T00:40:23.442Z,8.10
2018-11-14T00:41:23.415Z,9.00
2018-11-14T00:42:23.386Z,8.40
2018-11-14T00:43:23.370Z,8.60
2018-11-14T00:44:23.346Z,8.20
2018-11-14T00:45:23.332Z,7.80
2018-11-14T00:46:23.307Z,8.20
2018-11-14T00:47:23.287Z,8.40
2018-11-14T00:48:23.272Z,7.60
2018-11-14T00:49:23.243Z,8.30
2018-11-14T00:50:23.220Z,8.60
2018-11-14T00:51:23.201Z,8.50
2018-11-14T00:52:23.184Z,8.20
2018-11-14T00:53:23.160Z,8.10
2018-11-14T00:54:23.144Z,8.10
2018-11-14T00:55:23.118Z,8.80
2018-11-14T00:56:23.099Z,7.20
2018-11-14T00:57:23.079Z,8.20
2018-11-14T00:58:23.059Z,7.90
2018-11-14T00:59:23.040Z,8.20
2018-11-14T01:00:23.019Z,7.10
2018-11-14T01:01:23.003Z,7.80
2018-11-14T01:02:22.979Z,7.30
2018-11-14T01:03:22.955Z,7.70
2018-11-14T01:04:22.936Z,8.30
2018-11-14T01:05:22.912Z,7.30
2018-11-14T01:06:22.893Z,7.60
2018-11-14T01:07:22.871Z,7.60
2018-11-14T01:08:22.854Z,7.50
2018-11-14T01:09:22.829Z,7.80
2018-11-14T01:10:22.811Z,7.30
2018-11-14T01:11:22.793Z,7.70
2018-11-14T01:12:22.768Z,7.40
2018-11-14T01:13:22.783Z,7.60
2018-11-14T01:14:22.726Z,8.10
2018-11-14T01:15:22.712Z,7.70
2018-11-14T01:16:22.690Z,7.80
2018-11-14T01:17:22.668Z,9.00
2018-11-14T01:18:22.649Z,7.90
2018-11-14T01:19:22.632Z,8.30
2018-11-14T01:20:22.601Z,8.10
2018-11-14T01:21:22.587Z,8.40
2018-11-14T01:22:22.564Z,8.70
2018-11-14T01:23:22.544Z,7.80
2018-11-14T01:24:22.528Z,8.50
2018-11-14T01:25:22.501Z,8.60
2018-11-14T01:26:22.478Z,8.10
2018-11-14T01:27:22.604Z,8.50
2018-11-14T01:28:22.437Z,8.50
2018-11-14T01:29:22.421Z,8.90
2018-11-14T01:30:22.401Z,8.80
2018-11-14T01:31:22.379Z,8.40
2018-11-14T01:32:22.356Z,8.20
2018-11-14T01:33:22.335Z,8.80
2018-11-14T01:34:22.321Z,7.90
2018-11-14T01:35:22.295Z,9.40
2018-11-14T01:36:22.279Z,9.10
2018-11-14T01:37:22.251Z,8.70
2018-11-14T01:38:22.235Z,8.50
2018-11-14T01:39:22.209Z,8.60
2018-11-14T01:40:22.198Z,8.20
2018-11-14T01:41:22.170Z,8.60
2018-11-14T01:42:22.153Z,8.80
2018-11-14T01:43:22.130Z,8.30
2018-11-14T01:44:22.107Z,8.80
2018-11-14T01:45:22.093Z,9.10
2018-11-14T01:46:22.067Z,9.10
2018-11-14T01:47:22.045Z,9.30
2018-11-14T01:48:22.033Z,9.30
2018-11-14T01:49:22.007Z,9.60
2018-11-14T01:50:21.985Z,9.60
2018-11-14T01:51:21.967Z,9.00
2018-11-14T01:52:21.945Z,8.70
2018-11-14T01:53:21.927Z,9.20
2018-11-14T01:54:21.909Z,9.40
2018-11-14T01:55:21.883Z,9.70
2018-11-14T01:56:21.861Z,9.50
2018-11-14T01:57:21.841Z,10.00
2018-11-14T01:58:21.824Z,10.20
2018-11-14T01:59:21.799Z,9.90
2018-11-14T02:00:21.783Z,10.20
2018-11-14T02:01:21.761Z,9.90
2018-11-14T02:02:21.741Z,10.50
2018-11-14T02:03:21.719Z,10.40
2018-11-14T02:04:21.699Z,10.30
2018-11-14T02:05:21.679Z,10.00
2018-11-14T02:06:21.657Z,9.90
2018-11-14T02:07:21.637Z,10.40
2018-11-14T02:08:21.620Z,11.10
2018-11-14T02:09:21.596Z,11.00
2018-11-14T02:10:21.577Z,11.40
2018-11-14T02:11:21.557Z,10.50
2018-11-14T02:12:21.531Z,11.60
2018-11-14T02:13:21.509Z,12.00
2018-11-14T02:14:21.496Z,11.50
2018-11-14T02:15:21.470Z,11.00
2018-11-14T02:16:21.451Z,11.30
2018-11-14T02:17:21.430Z,10.90
2018-11-14T02:18:21.409Z,10.80
2018-11-14T02:19:21.388Z,11.70
2018-11-14T02:20:21.363Z,11.70
2018-11-14T02:21:21.343Z,11.20
2018-11-14T02:22:21.330Z,10.70
2018-11-14T02:23:21.304Z,10.60
2018-11-14T02:24:21.283Z,10.30
2018-11-14T02:25:21.262Z,12.20
2018-11-14T02:26:21.241Z,11.70
2018-11-14T02:27:21.224Z,11.40
2018-11-14T02:28:21.201Z,11.70
2018-11-14T02:29:21.180Z,12.10
2018-11-14T02:30:21.158Z,11.40
2018-11-14T02:31:21.136Z,12.40
2018-11-14T02:32:21.131Z,11.30
2018-11-14T02:33:21.095Z,11.60
2018-11-14T02:34:21.072Z,11.80
2018-11-14T02:35:21.054Z,12.30
2018-11-14T02:36:21.035Z,11.40
2018-11-14T02:37:21.010Z,11.70
2018-11-14T02:38:20.992Z,12.20
2018-11-14T02:39:20.968Z,11.60
2018-11-14T02:40:20.955Z,11.80
2018-11-14T02:41:20.926Z,11.70
2018-11-14T02:42:20.908Z,13.40
2018-11-14T02:43:20.886Z,12.50
2018-11-14T02:44:20.867Z,13.60
2018-11-14T02:45:20.850Z,13.60
2018-11-14T02:46:20.822Z,12.60
2018-11-14T02:47:20.802Z,14.90
2018-11-14T02:48:20.782Z,12.00
2018-11-14T02:49:20.762Z,13.00
2018-11-14T02:50:20.741Z,11.10
2018-11-14T02:51:20.718Z,12.10
2018-11-14T02:52:20.703Z,11.80
2018-11-14T02:53:20.676Z,11.50
2018-11-14T02:54:20.662Z,12.20
2018-11-14T02:55:20.635Z,12.10
2018-11-14T02:56:20.621Z,12.50
2018-11-14T02:57:20.597Z,13.00
2018-11-14T02:58:20.572Z,12.70
2018-11-14T02:59:20.557Z,12.90
2018-11-14T03:00:20.530Z,13.80
2018-11-14T03:01:20.510Z,12.80
2018-11-14T03:02:20.494Z,12.40
2018-11-14T03:03:20.468Z,14.50
2018-11-14T03:04:20.448Z,12.70
2018-11-14T03:05:20.426Z,13.00
2018-11-14T03:06:20.406Z,15.00
2018-11-14T03:07:20.382Z,15.40
2018-11-14T03:08:20.366Z,13.80
2018-11-14T03:09:20.342Z,15.50
2018-11-14T03:10:20.320Z,15.80
2018-11-14T03:11:20.302Z,14.00
2018-11-14T03:12:20.308Z,13.50
2018-11-14T03:13:20.258Z,14.90
2018-11-14T03:14:20.239Z,15.40
2018-11-14T03:15:20.214Z,13.50
2018-11-14T03:16:20.198Z,13.80
2018-11-14T03:17:20.175Z,14.00
2018-11-14T03:18:20.154Z,12.90
2018-11-14T03:19:20.130Z,12.30
2018-11-14T03:20:20.114Z,13.90
2018-11-14T03:21:20.102Z,13.30
2018-11-14T03:22:20.070Z,13.30
2018-11-14T03:23:20.052Z,14.10
2018-11-14T03:24:20.027Z,15.50
2018-11-14T03:25:20.005Z,15.00
2018-11-14T03:26:19.986Z,13.30
2018-11-14T03:27:19.960Z,13.90
2018-11-14T03:28:19.946Z,15.10
2018-11-14T03:29:19.925Z,14.10
2018-11-14T03:30:19.904Z,16.10
2018-11-14T03:31:19.884Z,15.70
2018-11-14T03:32:19.864Z,16.20
2018-11-14T03:33:19.836Z,14.20
2018-11-14T03:34:19.822Z,14.70
2018-11-14T03:35:19.797Z,13.90
2018-11-14T03:36:19.789Z,15.40
2018-11-14T03:37:19.757Z,14.90
2018-11-14T03:38:19.743Z,15.60
2018-11-14T03:39:19.712Z,15.60
2018-11-14T03:40:19.689Z,15.20
2018-11-14T03:41:19.669Z,17.00
2018-11-14T03:42:19.652Z,16.80
2018-11-14T03:43:19.628Z,15.80
2018-11-14T03:44:19.604Z,15.90
2018-11-14T03:45:19.586Z,17.80
2018-11-14T03:46:19.569Z,17.90
2018-11-14T03:47:19.543Z,16.20
2018-11-14T03:48:19.523Z,17.10
2018-11-14T03:49:19.502Z,16.30
2018-11-14T03:50:19.483Z,15.30
2018-11-14T03:51:19.464Z,15.00
2018-11-14T03:52:19.441Z,13.30
2018-11-14T03:53:19.423Z,13.70
2018-11-14T03:54:19.403Z,13.50
2018-11-14T03:55:19.380Z,13.70
2018-11-14T03:56:19.357Z,13.80
2018-11-14T03:57:19.335Z,14.30
2018-11-14T03:58:19.387Z,14.50
2018-11-14T03:59:19.289Z,14.20
2018-11-14T04:00:19.270Z,14.50
2018-11-14T04:01:19.248Z,14.20
2018-11-14T04:02:19.238Z,14.80
2018-11-14T04:03:19.208Z,14.10
2018-11-14T04:04:19.183Z,13.70
2018-11-14T04:05:19.216Z,15.00
2018-11-14T04:06:19.148Z,14.10
2018-11-14T04:07:19.129Z,14.50
2018-11-14T04:08:19.101Z,13.10
2018-11-14T04:09:19.133Z,15.20
2018-11-14T04:10:19.062Z,15.40
2018-11-14T04:11:19.037Z,13.50
2018-11-14T04:12:19.020Z,13.80
2018-11-14T04:13:18.997Z,13.40
2018-11-14T04:14:18.974Z,13.80
2018-11-14T04:15:18.957Z,14.80
2018-11-14T04:16:18.929Z,13.70
2018-11-14T04:17:18.915Z,14.50
2018-11-14T04:18:18.893Z,15.00
2018-11-14T04:19:18.869Z,14.80
2018-11-14T04:20:18.853Z,14.90
2018-11-14T04:21:18.830Z,15.40
2018-11-14T04:22:18.805Z,14.60
2018-11-14T04:23:18.784Z,14.80
2018-11-14T04:24:18.767Z,14.80
2018-11-14T04:25:18.741Z,15.10
2018-11-14T04:26:18.727Z,15.00
2018-11-14T04:27:18.702Z,14.90
2018-11-14T04:28:18.681Z,14.40
2018-11-14T04:29:18.661Z,15.20
2018-11-14T04:30:18.640Z,16.00
2018-11-14T04:31:18.623Z,16.80
2018-11-14T04:32:18.601Z,15.60
2018-11-14T04:33:18.573Z,16.60
2018-11-14T04:34:18.551Z,17.00
2018-11-14T04:35:18.535Z,15.00
2018-11-14T04:36:18.511Z,14.40
2018-11-14T04:37:18.491Z,14.50
2018-11-14T04:38:18.469Z,16.50
2018-11-14T04:39:18.446Z,17.00
2018-11-14T04:40:18.431Z,16.00
2018-11-14T04:41:18.409Z,14.80
2018-11-14T04:42:18.390Z,15.10
2018-11-14T04:43:18.363Z,15.20
2018-11-14T04:44:18.343Z,15.90
2018-11-14T04:45:18.325Z,17.00
2018-11-14T04:46:18.299Z,15.30
2018-11-14T04:47:18.281Z,15.50
2018-11-14T04:48:18.286Z,14.30
2018-11-14T04:49:18.242Z,15.60
2018-11-14T04:50:18.213Z,17.00
2018-11-14T04:51:18.197Z,15.40
2018-11-14T04:52:18.176Z,16.40
2018-11-14T04:53:18.158Z,17.10
2018-11-14T04:54:18.130Z,16.70
2018-11-14T04:55:18.110Z,17.70
2018-11-14T04:56:18.091Z,17.80
2018-11-14T04:57:18.059Z,15.90
2018-11-14T04:58:18.048Z,14.60
2018-11-14T04:59:18.022Z,14.50
2018-11-14T05:00:18.007Z,16.90
2018-11-14T05:01:17.987Z,17.00
2018-11-14T05:02:18.102Z,16.90
2018-11-14T05:03:17.941Z,16.90
2018-11-14T05:04:17.920Z,16.90
2018-11-14T05:05:17.897Z,17.20
2018-11-14T05:06:17.878Z,18.00
2018-11-14T05:07:17.858Z,16.70
2018-11-14T05:08:17.835Z,18.10
2018-11-14T05:09:17.817Z,18.10
2018-11-14T05:10:17.796Z,18.30
2018-11-14T05:11:17.770Z,17.20
2018-11-14T05:12:17.753Z,15.60
2018-11-14T05:13:17.727Z,16.40
2018-11-14T05:14:17.715Z,15.20
2018-11-14T05:15:17.688Z,15.20
2018-11-14T05:16:53.190Z,14.20
2018-11-14T05:17:53.162Z,17.60
2018-11-14T05:18:53.149Z,17.00
2018-11-14T05:19:53.128Z,16.90
2018-11-14T05:20:53.104Z,18.10
2018-11-14T05:21:53.084Z,18.00
2018-11-14T05:22:53.071Z,18.30
2018-11-14T05:23:53.038Z,18.20
2018-11-14T05:24:53.017Z,18.70
2018-11-14T05:25:52.995Z,17.10
2018-11-14T05:26:52.978Z,15.90
2018-11-14T05:27:52.952Z,15.80
2018-11-14T05:28:52.933Z,17.30
2018-11-14T05:29:52.914Z,17.60
2018-11-14T05:30:52.891Z,17.30
2018-11-14T05:31:52.934Z,17.20
2018-11-14T05:32:52.850Z,18.20
2018-11-14T05:33:52.826Z,17.10
2018-11-14T05:34:52.799Z,15.40
2018-11-14T05:35:52.784Z,15.90
2018-11-14T05:36:52.771Z,15.30
2018-11-14T05:37:52.744Z,15.70
2018-11-14T05:38:52.718Z,16.20
2018-11-14T05:39:52.756Z,16.80
2018-11-14T05:40:52.673Z,16.10
2018-11-14T05:41:52.651Z,15.40
2018-11-14T05:42:52.631Z,14.40
2018-11-14T05:43:52.616Z,16.70
2018-11-14T05:44:52.592Z,16.90
2018-11-14T05:45:52.569Z,15.30
2018-11-14T05:46:52.550Z,15.00
2018-11-14T05:47:52.526Z,14.00
2018-11-14T05:48:52.507Z,13.60
2018-11-14T05:49:52.484Z,14.40
2018-11-14T05:50:52.558Z,13.60
2018-11-14T05:51:52.440Z,14.70
2018-11-14T05:52:52.426Z,15.10
2018-11-14T05:53:52.402Z,15.20
2018-11-14T05:54:52.414Z,17.50
2018-11-14T05:55:52.354Z,16.60
2018-11-14T05:56:52.335Z,14.80
2018-11-14T05:57:52.343Z,14.40
2018-11-14T05:58:52.290Z,16.20
2018-11-14T05:59:52.271Z,16.60
2018-11-14T06:00:52.248Z,15.00
2018-11-14T06:01:52.230Z,15.90
2018-11-14T06:02:52.211Z,16.30
2018-11-14T06:03:52.185Z,15.60
2018-11-14T06:04:52.163Z,14.70
2018-11-14T06:05:52.142Z,15.80
2018-11-14T06:06:52.122Z,13.90
2018-11-14T06:07:52.100Z,15.60
2018-11-14T06:08:52.082Z,15.60
2018-11-14T06:09:52.057Z,14.80
2018-11-14T06:10:52.040Z,15.40
2018-11-14T06:11:52.013Z,16.70
2018-11-14T06:12:51.995Z,16.40
2018-11-14T06:13:51.972Z,15.00
2018-11-14T06:14:51.952Z,15.60
2018-11-14T06:15:51.924Z,15.60
2018-11-14T06:16:51.907Z,15.80
2018-11-14T06:17:51.887Z,14.60
2018-11-14T06:18:51.862Z,15.00
2018-11-14T06:19:51.846Z,15.30
2018-11-14T06:20:51.824Z,14.40
2018-11-14T06:21:51.844Z,14.90
2018-11-14T06:22:51.778Z,14.20
2018-11-14T06:23:51.758Z,14.60
2018-11-14T06:24:51.744Z,15.80
2018-11-14T06:25:51.713Z,17.00
2018-11-14T06:26:51.694Z,17.00
2018-11-14T06:27:51.675Z,17.00
2018-11-14T06:28:51.650Z,16.30
2018-11-14T06:29:51.708Z,17.40
2018-11-14T06:30:51.606Z,17.40
2018-11-14T06:31:51.586Z,16.20
2018-11-14T06:32:51.568Z,15.20
2018-11-14T06:33:51.545Z,18.70
2018-11-14T06:34:51.519Z,16.80
2018-11-14T06:35:51.500Z,16.70
2018-11-14T06:36:51.484Z,18.00
2018-11-14T06:37:51.458Z,21.70
2018-11-14T06:38:51.438Z,19.50
2018-11-14T06:39:51.413Z,19.00
2018-11-14T06:40:51.395Z,18.20
2018-11-14T06:41:51.372Z,20.40
2018-11-14T06:42:51.350Z,19.30
2018-11-14T06:43:51.328Z,19.20
2018-11-14T06:44:51.305Z,18.30
2018-11-14T06:45:51.289Z,19.70
2018-11-14T06:46:51.263Z,17.30
2018-11-14T06:47:51.246Z,17.90
2018-11-14T06:48:51.220Z,17.90
2018-11-14T06:49:51.243Z,18.40
2018-11-14T06:50:51.175Z,17.40
2018-11-14T06:51:51.163Z,16.70
2018-11-14T06:52:51.179Z,18.50
2018-11-14T06:53:51.115Z,16.10
2018-11-14T06:54:51.094Z,16.50
2018-11-14T06:55:51.083Z,15.40
2018-11-14T06:56:51.053Z,15.00
2018-11-14T06:57:51.029Z,16.00
2018-11-14T06:58:51.102Z,17.20
2018-11-14T06:59:51.111Z,16.70
2018-11-14T07:00:50.966Z,16.40
2018-11-14T07:01:50.954Z,15.50
2018-11-14T07:02:50.922Z,14.80
2018-11-14T07:03:50.901Z,13.90
2018-11-14T07:04:50.951Z,14.60
2018-11-14T07:05:50.941Z,15.50
2018-11-14T07:06:50.839Z,15.60
2018-11-14T07:07:50.815Z,15.80
2018-11-14T07:08:50.798Z,15.30
2018-11-14T07:09:50.774Z,14.60
2018-11-14T07:10:50.802Z,15.30
2018-11-14T07:11:50.733Z,16.40
2018-11-14T07:12:50.709Z,16.40
2018-11-14T07:13:50.685Z,21.00
2018-11-14T07:14:50.669Z,18.10
2018-11-14T07:15:50.649Z,22.20
2018-11-14T07:16:50.631Z,23.10
2018-11-14T07:17:50.681Z,21.70
2018-11-14T07:18:50.580Z,19.00
2018-11-14T07:19:50.566Z,16.80
2018-11-14T07:20:50.540Z,15.40
2018-11-14T07:21:50.517Z,16.00
2018-11-14T07:22:50.493Z,18.60
2018-11-14T07:23:50.594Z,16.80
2018-11-14T07:24:50.454Z,14.50
2018-11-14T07:25:50.433Z,14.70
2018-11-14T07:26:50.409Z,17.00
2018-11-14T07:27:50.395Z,18.80
2018-11-14T07:28:50.371Z,18.00
2018-11-14T07:29:50.350Z,16.10
2018-11-14T07:30:50.331Z,16.80
2018-11-14T07:31:50.311Z,16.50
2018-11-14T07:32:50.338Z,16.50
2018-11-14T07:33:50.269Z,15.90
2018-11-14T07:34:50.243Z,17.00
2018-11-14T07:35:50.225Z,17.10
2018-11-14T07:36:50.198Z,19.40
2018-11-14T07:37:50.295Z,19.90
2018-11-14T07:38:50.157Z,21.10
2018-11-14T07:39:50.140Z,21.30
2018-11-14T07:40:50.117Z,20.00
2018-11-14T07:41:50.104Z,19.20
2018-11-14T07:42:50.079Z,18.90
2018-11-14T07:43:50.118Z,19.70
2018-11-14T07:44:50.052Z,19.50
2018-11-14T07:45:50.016Z,17.00
2018-11-14T07:46:49.996Z,18.10
2018-11-14T07:47:49.980Z,17.30
2018-11-14T07:48:50.007Z,16.80
2018-11-14T07:49:49.940Z,15.50
2018-11-14T07:50:49.915Z,14.10
2018-11-14T07:51:49.893Z,13.90
2018-11-14T07:52:49.873Z,14.00
2018-11-14T07:53:49.851Z,12.70
2018-11-14T07:54:49.878Z,12.40
2018-11-14T07:55:49.810Z,13.20
2018-11-14T07:56:49.791Z,13.80
2018-11-14T07:57:49.771Z,13.40
2018-11-14T07:58:49.751Z,15.00
2018-11-14T07:59:49.733Z,14.60
2018-11-14T08:00:49.710Z,15.30
2018-11-14T08:01:49.685Z,14.70
2018-11-14T08:02:49.668Z,14.00
2018-11-14T08:03:49.655Z,14.30
2018-11-14T08:04:49.629Z,14.60
2018-11-14T08:05:49.607Z,14.40
2018-11-14T08:06:49.591Z,14.20
2018-11-14T08:07:49.673Z,13.40
2018-11-14T08:08:49.552Z,13.50
2018-11-14T08:09:49.529Z,13.60
2018-11-14T08:10:49.510Z,13.40
2018-11-14T08:11:49.490Z,13.30
2018-11-14T08:12:49.467Z,14.40
2018-11-14T08:13:49.451Z,13.70
2018-11-14T08:14:49.428Z,13.70
2018-11-14T08:15:49.423Z,13.00
2018-11-14T08:16:49.387Z,12.70
2018-11-14T08:17:49.380Z,13.10
2018-11-14T08:18:49.418Z,14.00
2018-11-14T08:19:49.332Z,13.40
2018-11-14T08:20:49.314Z,14.50
2018-11-14T08:21:49.292Z,15.00
2018-11-14T08:22:49.270Z,15.10
2018-11-14T08:23:49.254Z,16.20
2018-11-14T08:24:49.257Z,15.80
2018-11-14T08:25:49.211Z,15.70
2018-11-14T08:26:49.190Z,16.20
2018-11-14T08:27:49.178Z,16.60
2018-11-14T08:28:49.155Z,15.90
2018-11-14T08:29:49.136Z,15.70
2018-11-14T08:30:49.116Z,15.20
2018-11-14T08:31:49.099Z,16.00
2018-11-14T08:32:49.083Z,16.30
2018-11-14T08:33:49.057Z,16.00
2018-11-14T08:34:49.035Z,15.20
2018-11-14T08:35:49.017Z,14.90
2018-11-14T08:36:49.001Z,14.10
2018-11-14T08:37:48.983Z,14.20
2018-11-14T08:38:48.961Z,14.80
2018-11-14T08:39:48.939Z,14.30
2018-11-14T08:40:48.921Z,14.10
2018-11-14T08:41:48.902Z,14.80
2018-11-14T08:42:48.885Z,13.70
2018-11-14T08:43:48.923Z,13.60
2018-11-14T08:44:48.845Z,13.70
2018-11-14T08:45:48.826Z,13.90
2018-11-14T08:46:48.807Z,13.10
2018-11-14T08:47:48.790Z,14.00
2018-11-14T08:48:48.778Z,13.90
2018-11-14T08:49:48.753Z,13.70
2018-11-14T08:50:48.747Z,13.10
2018-11-14T08:51:48.717Z,12.70
2018-11-14T08:52:48.694Z,13.30
2018-11-14T08:53:48.677Z,13.90
2018-11-14T08:54:48.655Z,12.90
2018-11-14T08:55:48.637Z,13.60
2018-11-14T08:56:48.623Z,13.70
2018-11-14T08:57:48.621Z,12.90
2018-11-14T08:58:48.583Z,12.80
2018-11-14T08:59:48.568Z,12.20
2018-11-14T09:00:48.548Z,12.30
2018-11-14T09:01:48.530Z,12.20
2018-11-14T09:02:48.506Z,12.40
2018-11-14T09:03:48.502Z,12.30
2018-11-14T09:04:48.474Z,11.60
2018-11-14T09:05:48.458Z,11.60
2018-11-14T09:06:48.436Z,12.00
2018-11-14T09:07:48.508Z,11.00
2018-11-14T09:08:48.401Z,10.60
2018-11-14T09:09:48.383Z,11.00
2018-11-14T09:10:48.402Z,11.80
2018-11-14T09:11:48.350Z,11.80
2018-11-14T09:12:48.398Z,11.80
2018-11-14T09:13:48.314Z,11.00
2018-11-14T09:14:48.319Z,10.80
2018-11-14T09:15:48.279Z,11.00
2018-11-14T09:16:48.262Z,11.20
2018-11-14T09:17:48.245Z,11.30
2018-11-14T09:18:48.282Z,11.10
2018-11-14T09:19:48.208Z,12.20
2018-11-14T09:20:48.194Z,11.00
2018-11-14T09:21:48.174Z,11.10
2018-11-14T09:22:48.156Z,11.30
2018-11-14T09:23:48.145Z,10.20
2018-11-14T09:24:48.216Z,11.20
2018-11-14T09:25:48.106Z,11.90
2018-11-14T09:26:48.088Z,11.60
2018-11-14T09:27:48.069Z,12.10
2018-11-14T09:28:48.053Z,11.20
2018-11-14T09:29:48.043Z,12.40
2018-11-14T09:30:48.021Z,12.40
2018-11-14T09:31:48.000Z,12.10
2018-11-14T09:32:47.986Z,11.70
2018-11-14T09:33:47.970Z,12.50
2018-11-14T09:34:48.048Z,11.80
2018-11-14T09:35:47.937Z,11.30
2018-11-14T09:36:47.923Z,11.40
2018-11-14T09:37:47.898Z,12.10
2018-11-14T09:38:47.878Z,13.20
2018-11-14T09:39:47.864Z,12.20
2018-11-14T09:40:47.902Z,12.30
2018-11-14T09:41:47.832Z,11.70
2018-11-14T09:42:47.810Z,12.00
2018-11-14T09:43:47.910Z,11.80
2018-11-14T09:44:47.781Z,12.50
2018-11-14T09:45:47.767Z,12.10
2018-11-14T09:46:47.741Z,12.20
2018-11-14T09:47:47.724Z,12.70
2018-11-14T09:48:47.711Z,11.70
2018-11-14T09:49:47.691Z,12.00
2018-11-14T09:50:47.674Z,11.10
2018-11-14T09:51:47.659Z,11.40
2018-11-14T09:52:47.639Z,10.70
2018-11-14T09:53:47.619Z,11.40
2018-11-14T09:54:47.606Z,10.90
2018-11-14T09:55:47.588Z,10.80
2018-11-14T09:56:47.621Z,10.20
2018-11-14T09:57:47.552Z,9.50
2018-11-14T09:58:47.557Z,10.80
2018-11-14T09:59:47.517Z,9.90
2018-11-14T10:00:47.584Z,9.90
2018-11-14T10:01:47.483Z,11.60
2018-11-14T10:02:47.470Z,12.60
2018-11-14T10:03:47.453Z,11.00
2018-11-14T10:04:47.436Z,10.30
2018-11-14T10:06:47.393Z,9.40
2018-11-14T10:07:47.384Z,8.10
2018-11-14T10:08:47.377Z,8.10
2018-11-14T10:09:47.349Z,8.20
2018-11-14T10:10:47.368Z,8.70
2018-11-14T10:11:47.319Z,8.10
2018-11-14T10:12:47.298Z,7.90
2018-11-14T10:13:47.284Z,8.00
2018-11-14T10:14:47.267Z,8.60
2018-11-14T10:15:47.341Z,8.80
2018-11-14T10:16:47.236Z,8.30
2018-11-14T10:17:47.213Z,8.50
2018-11-14T10:18:47.201Z,8.20
2018-11-14T10:19:47.189Z,8.10
2018-11-14T10:20:47.172Z,7.40
2018-11-14T10:21:47.149Z,7.90
2018-11-14T10:22:47.138Z,7.40
2018-11-14T10:23:47.119Z,7.40
2018-11-14T10:24:47.106Z,7.30
2018-11-14T10:25:47.096Z,7.30
2018-11-14T10:26:47.076Z,6.80
2018-11-14T10:27:47.062Z,7.30
2018-11-14T10:28:47.048Z,7.30
2018-11-14T10:29:47.029Z,7.50
2018-11-14T10:30:47.029Z,8.00
2018-11-14T10:31:47.065Z,8.20
2018-11-14T10:32:46.983Z,7.20
2018-11-14T10:33:46.957Z,7.00
2018-11-14T10:34:46.953Z,7.40
2018-11-14T10:35:46.936Z,7.90
2018-11-14T10:36:46.921Z,6.80
2018-11-14T10:37:46.905Z,7.50
2018-11-14T10:38:46.887Z,7.00
2018-11-14T10:39:46.877Z,8.10
2018-11-14T10:40:46.861Z,7.50
2018-11-14T10:41:46.846Z,7.70
2018-11-14T10:42:46.878Z,8.10
2018-11-14T10:43:46.813Z,9.40
2018-11-14T10:44:46.804Z,8.30
2018-11-14T10:45:46.787Z,9.00
2018-11-14T10:46:46.769Z,8.50
2018-11-14T10:47:46.754Z,8.50
2018-11-14T10:48:46.739Z,8.30
2018-11-14T10:49:46.725Z,8.10
2018-11-14T10:50:46.763Z,8.20
2018-11-14T10:51:46.695Z,7.70
2018-11-14T10:52:46.679Z,8.30
2018-11-14T10:53:46.663Z,8.50
2018-11-14T10:54:46.650Z,8.30
2018-11-14T10:55:46.632Z,7.30
2018-11-14T10:56:46.612Z,8.20
2018-11-14T10:57:46.596Z,8.20
2018-11-14T10:58:46.585Z,7.20
2018-11-14T10:59:46.577Z,7.30
2018-11-14T11:00:46.553Z,7.40
2018-11-14T11:01:46.536Z,6.50
2018-11-14T11:02:46.523Z,7.00
2018-11-14T11:03:46.509Z,7.90
2018-11-14T11:04:46.494Z,7.00
2018-11-14T11:05:46.480Z,8.00
2018-11-14T11:06:46.462Z,7.70
2018-11-14T11:07:46.452Z,7.00
2018-11-14T11:08:46.564Z,7.10
2018-11-14T11:09:46.418Z,6.70
2018-11-14T11:10:46.407Z,6.70
2018-11-14T11:11:46.387Z,7.30
2018-11-14T11:12:46.372Z,6.50
2018-11-14T11:13:46.407Z,7.10
2018-11-14T11:14:46.342Z,7.00
2018-11-14T11:15:46.325Z,7.00
2018-11-14T11:16:46.310Z,7.30
2018-11-14T11:17:46.296Z,6.70
2018-11-14T11:18:46.282Z,6.80
2018-11-14T11:19:46.268Z,6.50
2018-11-14T11:20:46.251Z,6.30
2018-11-14T11:21:46.241Z,6.20
2018-11-14T11:22:46.222Z,6.30
2018-11-14T11:23:46.208Z,6.50
2018-11-14T11:24:46.229Z,6.00
2018-11-14T11:25:46.183Z,6.90
2018-11-14T11:26:46.166Z,6.30
2018-11-14T11:27:46.148Z,6.20
2018-11-14T11:28:46.136Z,6.30
2018-11-14T11:29:46.122Z,6.10
2018-11-14T11:30:46.208Z,5.60
2018-11-14T11:31:46.152Z,6.20
2018-11-14T11:32:46.078Z,6.30
2018-11-14T11:33:46.060Z,6.30
2018-11-14T11:34:46.047Z,6.30
2018-11-14T11:35:46.036Z,6.60
2018-11-14T11:36:46.020Z,6.20
2018-11-14T11:37:46.000Z,6.40
2018-11-14T11:38:45.988Z,6.40
2018-11-14T11:39:45.976Z,5.60
2018-11-14T11:40:45.958Z,6.20
2018-11-14T11:41:45.943Z,6.60
2018-11-14T11:42:45.929Z,6.40
2018-11-14T11:43:45.923Z,6.90
2018-11-14T11:44:45.904Z,5.90
2018-11-14T11:45:45.886Z,6.20
2018-11-14T11:46:45.877Z,6.30
2018-11-14T11:47:45.857Z,6.40
2018-11-14T11:48:45.844Z,6.80
2018-11-14T11:49:45.821Z,6.90
2018-11-14T11:50:45.860Z,7.70
2018-11-14T11:51:45.856Z,7.40
2018-11-14T11:52:45.784Z,8.10
2018-11-14T11:53:45.766Z,7.40
2018-11-14T11:54:45.750Z,7.00
2018-11-14T11:55:45.740Z,7.10
2018-11-14T11:56:45.724Z,6.80
2018-11-14T11:57:45.708Z,18.00
2018-11-14T11:58:45.688Z,12.20
2018-11-14T11:59:45.811Z,9.10
2018-11-14T12:00:45.819Z,7.30
2018-11-14T12:01:45.643Z,6.90
2018-11-14T12:02:45.628Z,6.60
2018-11-14T12:03:45.613Z,8.50
2018-11-14T12:04:45.601Z,9.60
2018-11-14T12:05:45.601Z,10.30
2018-11-14T12:06:45.574Z,8.50
2018-11-14T12:07:45.555Z,8.20
2018-11-14T12:08:45.540Z,7.30
2018-11-14T12:09:45.525Z,7.90
2018-11-14T12:10:45.532Z,8.70
2018-11-14T12:11:45.491Z,9.00
2018-11-14T12:12:45.517Z,9.50
2018-11-14T12:13:45.536Z,9.10
2018-11-14T12:14:45.442Z,8.60
2018-11-14T12:15:45.433Z,8.50
2018-11-14T12:16:45.417Z,8.80
2018-11-14T12:17:45.457Z,9.40
2018-11-14T12:18:45.385Z,8.40
2018-11-14T12:19:45.362Z,8.30
2018-11-14T12:20:45.350Z,8.70
2018-11-14T12:21:45.348Z,9.50
2018-11-14T12:22:45.318Z,10.30
2018-11-14T12:23:45.386Z,8.70
2018-11-14T12:24:45.285Z,8.00
2018-11-14T12:25:45.274Z,7.90
2018-11-14T12:26:45.259Z,7.30
2018-11-14T12:27:45.373Z,7.40
2018-11-14T12:28:45.234Z,7.60
2018-11-14T12:29:45.223Z,8.40
2018-11-14T12:30:45.305Z,7.40
2018-11-14T12:31:45.180Z,7.20
2018-11-14T12:32:45.165Z,7.80
2018-11-14T12:33:45.145Z,8.50
2018-11-14T12:34:45.224Z,7.40
2018-11-14T12:35:45.184Z,7.10
2018-11-14T12:36:45.097Z,6.90
2018-11-14T12:37:45.083Z,6.90
2018-11-14T12:38:45.446Z,6.80
2018-11-14T12:39:45.055Z,6.70
2018-11-14T12:40:45.037Z,8.30
2018-11-14T12:41:45.049Z,6.60
2018-11-14T12:42:45.004Z,8.50
2018-11-14T12:43:44.989Z,8.30
2018-11-14T12:44:44.976Z,7.60
2018-11-14T12:45:44.957Z,8.60
2018-11-14T12:46:44.945Z,7.40
2018-11-14T12:47:44.929Z,7.30
2018-11-14T12:48:44.909Z,7.50
2018-11-14T12:49:44.893Z,10.90
2018-11-14T12:50:44.882Z,8.40
2018-11-14T12:51:44.864Z,9.10
2018-11-14T12:52:44.983Z,7.90
2018-11-14T12:53:44.835Z,6.70
2018-11-14T12:54:44.828Z,7.00
2018-11-14T12:55:44.807Z,11.30
2018-11-14T12:56:44.789Z,10.10
2018-11-14T12:57:44.772Z,10.10
2018-11-14T12:58:44.810Z,9.80
2018-11-14T12:59:44.742Z,11.10
2018-11-14T13:00:44.726Z,9.60
2018-11-14T13:01:44.714Z,14.90
2018-11-14T13:02:44.697Z,9.10